Sunny Clover — H3SY — position and weather

sailwx.info

Track history (hours):
 
Tides and Currents Weather Stations Pressure Air Temp Water Temp Dewpoint Dewpoint Depression Visibility Wind Speed Wind Dir Waves Ship Positions

Sunny Clover

Last reported at 2016-Apr-25 08:33 UTC. Time now 2016-May-02 08:19 UTC.
Position N 22°07' E 114°19'.

Length 137 m; draft 6.7 m.

Type: Cargo ship. MMSI: 374431000.

Date/timePositionNaut miles runAvg speedWind from/ knotsBaromVisibWave heightAir tempDewpointWater temp
2016-Apr-25 08:33N 22°07' E 114°19'1512.7
2016-Apr-25 07:23N 22°16' E 114°06'4 3.6
2016-Apr-25 06:13N 22°20' E 114°08'0 0.0
2016-Apr-25 05:31N 22°20' E 114°08'0 0.0
2016-Apr-25 04:31N 22°20' E 114°08'0 0.0
2016-Apr-25 03:31N 22°20' E 114°08'0 0.0
2016-Apr-25 02:31N 22°20' E 114°08'0 0.0
2016-Apr-25 01:25N 22°20' E 114°08'0 0.0
2016-Apr-25 00:31N 22°20' E 114°08'0 0.0
2016-Apr-24 23:25N 22°20' E 114°08'0 0.0
2016-Apr-24 22:28N 22°20' E 114°08'0 0.0
2016-Apr-24 21:31N 22°20' E 114°08'0 0.0
2016-Apr-24 20:25N 22°20' E 114°08'0 0.0
2016-Apr-24 19:33N 22°20' E 114°08'3 0.3
2016-Apr-24 09:18N 22°20' E 114°05'910.4
2016-Apr-24 08:26N 22°13' E 114°10'5 5.4
2016-Apr-24 07:32N 22°09' E 114°14'7 6.3
2016-Apr-24 06:28N 22°07' E 114°07'5 4.8
2016-Apr-24 05:31N 22°03' E 114°04'0 0.0
2016-Apr-24 04:31N 22°03' E 114°04'0 0.0
2016-Apr-24 03:28N 22°03' E 114°04'0 0.0
2016-Apr-24 02:31N 22°03' E 114°04'0 0.0
2016-Apr-24 01:25N 22°03' E 114°04'0 0.0
2016-Apr-24 00:28N 22°03' E 114°04'0 0.0
2016-Apr-23 23:28N 22°03' E 114°04'0 0.0
2016-Apr-23 22:31N 22°03' E 114°04'0 0.1
2016-Apr-23 21:31N 22°03' E 114°05'0 0.0
2016-Apr-23 20:25N 22°03' E 114°05'0 0.0
2016-Apr-23 19:31N 22°03' E 114°05'0 0.0
2016-Apr-23 16:31N 22°03' E 114°04'0 0.1
2016-Apr-23 15:33N 22°03' E 114°05'1310.8
2016-Apr-23 14:22N 22°06' E 113°51'7 8.4
2016-Apr-23 13:33N 22°12' E 113°48'2612.1
2016-Apr-23 11:25N 22°37' E 113°42'1011.2
2016-Apr-23 10:33N 22°46' E 113°38'1110.8
2016-Apr-23 09:30N 22°57' E 113°33'6 2.1
2016-Apr-23 06:30N 23°03' E 113°31'0 0.0
2016-Apr-23 05:30N 23°03' E 113°31'0 0.0
2016-Apr-23 04:30N 23°03' E 113°31'0 0.0
2016-Apr-23 03:30N 23°03' E 113°31'0 0.0
2016-Apr-23 02:30N 23°03' E 113°31'0 0.0
2016-Apr-23 00:24N 23°03' E 113°31'0 0.0
2016-Apr-22 23:24N 23°03' E 113°31'0 0.0
2016-Apr-22 22:12N 23°03' E 113°31'0 0.0
2016-Apr-22 21:30N 23°03' E 113°31'0 0.0
2016-Apr-22 20:24N 23°03' E 113°31'0 0.0
2016-Apr-22 19:30N 23°03' E 113°31'0 0.0
2016-Apr-22 18:30N 23°03' E 113°31'0 0.0
2016-Apr-22 17:30N 23°03' E 113°31'0 0.0
2016-Apr-22 16:24N 23°03' E 113°31'0 0.0
2016-Apr-22 14:24N 23°03' E 113°31'0 0.0
2016-Apr-22 12:30N 23°03' E 113°31'0 0.0
2016-Apr-22 11:18N 23°03' E 113°31'0 0.0
2016-Apr-22 10:12N 23°03' E 113°31'0 0.0
2016-Apr-22 09:30N 23°03' E 113°31'0 0.0
2016-Apr-22 08:30N 23°03' E 113°31'0 0.0
2016-Apr-22 07:24N 23°03' E 113°31'0 0.0
2016-Apr-22 06:24N 23°03' E 113°31'0 0.0
2016-Apr-22 05:18N 23°03' E 113°31'0 0.0
2016-Apr-22 04:12N 23°03' E 113°31'0 0.0
2016-Apr-22 03:30N 23°03' E 113°31'0 0.0
2016-Apr-22 02:24N 23°03' E 113°31'0 0.0
2016-Apr-22 01:24N 23°03' E 113°31'0 0.0
2016-Apr-22 00:28N 23°03' E 113°31'7 7.3
2016-Apr-21 23:33N 22°56' E 113°33'1010.3
2016-Apr-21 22:33N 22°47' E 113°38'2611.6
2016-Apr-21 20:21N 22°23' E 113°47'910.8
2016-Apr-21 19:33N 22°14' E 113°48'8 8.1
2016-Apr-21 18:33N 22°06' E 113°47'2 2.0
2016-Apr-21 17:33N 22°08' E 113°47'0 0.0
2016-Apr-21 16:21N 22°08' E 113°47'0 0.2
2016-Apr-21 15:33N 22°08' E 113°47'3 2.9
2016-Apr-21 14:32N 22°06' E 113°49'20 9.4
2016-Apr-21 12:21N 22°13' E 114°10'8 9.5
2016-Apr-21 11:33N 22°19' E 114°06'2 1.5
2016-Apr-21 10:30N 22°20' E 114°07'0 0.0
2016-Apr-21 09:15N 22°20' E 114°07'0 0.0
2016-Apr-21 07:30N 22°20' E 114°07'1 1.1
2016-Apr-21 06:33N 22°19' E 114°07'15 7.1
2016-Apr-21 04:24N 22°08' E 114°18'10 8.9
2016-Apr-21 03:14N 22°09' E 114°29'14914.7
2016-Apr-20 17:04N 23°02' E 117°00'13215.4
2016-Apr-20 08:31N 24°16' E 118°60'1515.6
2016-Apr-20 07:33N 24°25' E 119°13'  
Track history (hours):
 
Tides and Currents Weather Stations Pressure Air Temp Water Temp Dewpoint Dewpoint Depression Visibility Wind Speed Wind Dir Waves Ship Positions

Sunny Clover

Last reported at 2016-Apr-25 08:33 UTC. Time now 2016-May-02 08:19 UTC.
Position N 22°07' E 114°19'.

Length 137 m; draft 6.7 m.

Type: Cargo ship. MMSI: 374431000.

Date/timePositionNaut miles runAvg speedWind from/ knotsBaromVisibWave heightAir tempDewpointWater temp
2016-Apr-25 08:33N 22°07' E 114°19'1512.7
2016-Apr-25 07:23N 22°16' E 114°06'4 3.6
2016-Apr-25 06:13N 22°20' E 114°08'0 0.0
2016-Apr-25 05:31N 22°20' E 114°08'0 0.0
2016-Apr-25 04:31N 22°20' E 114°08'0 0.0
2016-Apr-25 03:31N 22°20' E 114°08'0 0.0
2016-Apr-25 02:31N 22°20' E 114°08'0 0.0
2016-Apr-25 01:25N 22°20' E 114°08'0 0.0
2016-Apr-25 00:31N 22°20' E 114°08'0 0.0
2016-Apr-24 23:25N 22°20' E 114°08'0 0.0
2016-Apr-24 22:28N 22°20' E 114°08'0 0.0
2016-Apr-24 21:31N 22°20' E 114°08'0 0.0
2016-Apr-24 20:25N 22°20' E 114°08'0 0.0
2016-Apr-24 19:33N 22°20' E 114°08'3 0.3
2016-Apr-24 09:18N 22°20' E 114°05'910.4
2016-Apr-24 08:26N 22°13' E 114°10'5 5.4
2016-Apr-24 07:32N 22°09' E 114°14'7 6.3
2016-Apr-24 06:28N 22°07' E 114°07'5 4.8
2016-Apr-24 05:31N 22°03' E 114°04'0 0.0
2016-Apr-24 04:31N 22°03' E 114°04'0 0.0
2016-Apr-24 03:28N 22°03' E 114°04'0 0.0
2016-Apr-24 02:31N 22°03' E 114°04'0 0.0
2016-Apr-24 01:25N 22°03' E 114°04'0 0.0
2016-Apr-24 00:28N 22°03' E 114°04'0 0.0
2016-Apr-23 23:28N 22°03' E 114°04'0 0.0
2016-Apr-23 22:31N 22°03' E 114°04'0 0.1
2016-Apr-23 21:31N 22°03' E 114°05'0 0.0
2016-Apr-23 20:25N 22°03' E 114°05'0 0.0
2016-Apr-23 19:31N 22°03' E 114°05'0 0.0
2016-Apr-23 16:31N 22°03' E 114°04'0 0.1
2016-Apr-23 15:33N 22°03' E 114°05'1310.8
2016-Apr-23 14:22N 22°06' E 113°51'7 8.4
2016-Apr-23 13:33N 22°12' E 113°48'2612.1
2016-Apr-23 11:25N 22°37' E 113°42'1011.2
2016-Apr-23 10:33N 22°46' E 113°38'1110.8
2016-Apr-23 09:30N 22°57' E 113°33'6 2.1
2016-Apr-23 06:30N 23°03' E 113°31'0 0.0
2016-Apr-23 05:30N 23°03' E 113°31'0 0.0
2016-Apr-23 04:30N 23°03' E 113°31'0 0.0
2016-Apr-23 03:30N 23°03' E 113°31'0 0.0
2016-Apr-23 02:30N 23°03' E 113°31'0 0.0
2016-Apr-23 00:24N 23°03' E 113°31'0 0.0
2016-Apr-22 23:24N 23°03' E 113°31'0 0.0
2016-Apr-22 22:12N 23°03' E 113°31'0 0.0
2016-Apr-22 21:30N 23°03' E 113°31'0 0.0
2016-Apr-22 20:24N 23°03' E 113°31'0 0.0
2016-Apr-22 19:30N 23°03' E 113°31'0 0.0
2016-Apr-22 18:30N 23°03' E 113°31'0 0.0
2016-Apr-22 17:30N 23°03' E 113°31'0 0.0
2016-Apr-22 16:24N 23°03' E 113°31'0 0.0
2016-Apr-22 14:24N 23°03' E 113°31'0 0.0
2016-Apr-22 12:30N 23°03' E 113°31'0 0.0
2016-Apr-22 11:18N 23°03' E 113°31'0 0.0
2016-Apr-22 10:12N 23°03' E 113°31'0 0.0
2016-Apr-22 09:30N 23°03' E 113°31'0 0.0
2016-Apr-22 08:30N 23°03' E 113°31'0 0.0
2016-Apr-22 07:24N 23°03' E 113°31'0 0.0
2016-Apr-22 06:24N 23°03' E 113°31'0 0.0
2016-Apr-22 05:18N 23°03' E 113°31'0 0.0
2016-Apr-22 04:12N 23°03' E 113°31'0 0.0
2016-Apr-22 03:30N 23°03' E 113°31'0 0.0
2016-Apr-22 02:24N 23°03' E 113°31'0 0.0
2016-Apr-22 01:24N 23°03' E 113°31'0 0.0
2016-Apr-22 00:28N 23°03' E 113°31'7 7.3
2016-Apr-21 23:33N 22°56' E 113°33'1010.3
2016-Apr-21 22:33N 22°47' E 113°38'2611.6
2016-Apr-21 20:21N 22°23' E 113°47'910.8
2016-Apr-21 19:33N 22°14' E 113°48'8 8.1
2016-Apr-21 18:33N 22°06' E 113°47'2 2.0
2016-Apr-21 17:33N 22°08' E 113°47'0 0.0
2016-Apr-21 16:21N 22°08' E 113°47'0 0.2
2016-Apr-21 15:33N 22°08' E 113°47'3 2.9
2016-Apr-21 14:32N 22°06' E 113°49'20 9.4
2016-Apr-21 12:21N 22°13' E 114°10'8 9.5
2016-Apr-21 11:33N 22°19' E 114°06'2 1.5
2016-Apr-21 10:30N 22°20' E 114°07'0 0.0
2016-Apr-21 09:15N 22°20' E 114°07'0 0.0
2016-Apr-21 07:30N 22°20' E 114°07'1 1.1
2016-Apr-21 06:33N 22°19' E 114°07'15 7.1
2016-Apr-21 04:24N 22°08' E 114°18'10 8.9
2016-Apr-21 03:14N 22°09' E 114°29'14914.7
2016-Apr-20 17:04N 23°02' E 117°00'13215.4
2016-Apr-20 08:31N 24°16' E 118°60'1515.6
2016-Apr-20 07:33N 24°25' E 119°13'  

Dump ship's entire track history